Time;durP1;ratioP1;P1;durP2;ratioP2;P2;SDS_P1;SDS_P2;PMS_P1;PMS_P2;Temp;Humidity;BMP_temperature;BMP_pressure;BME280_temperature;BME280_humidity;BME280_pressure;Samples;Min_cycle;Max_cycle;Signal;HPM_P1;HPM_P2
2022/09/23 00:02:18;;;;;;;2.50;2.25;;;;;8.60;94275.00;;;;7393231;19;20228;-78
2022/09/23 00:04:50;;;;;;;3.60;2.20;;;;;8.60;94282.00;;;;7393660;19;20149;-78
2022/09/23 00:07:25;;;;;;;8.67;2.40;;;;;8.70;94276.00;;;;7394406;19;20142;-78
2022/09/23 00:09:57;;;;;;;4.00;2.27;;;;;8.80;94280.00;;;;7396247;19;20181;-78
2022/09/23 00:12:25;;;;;;;6.33;2.27;;;;;8.80;94284.00;;;;7392517;19;20180;-79
2022/09/23 00:15:03;;;;;;;6.25;2.10;;;;;8.80;94276.00;;;;7395769;19;20161;-78
2022/09/23 00:17:33;;;;;;;2.47;2.13;;;;;8.80;94269.00;;;;7393367;19;20131;-77
2022/09/23 00:20:10;;;;;;;3.27;2.40;;;;;8.80;94273.00;;;;7396995;19;20501;-78
2022/09/23 00:22:38;;;;;;;2.93;2.40;;;;;8.90;94274.00;;;;7395925;19;20152;-81
2022/09/23 00:25:08;;;;;;;2.78;2.20;;;;;8.90;94277.00;;;;7394778;19;20121;-78
2022/09/23 00:27:42;;;;;;;3.97;2.27;;;;;8.70;94272.00;;;;7395422;19;20602;-78
2022/09/23 00:30:10;;;;;;;4.47;2.50;;;;;8.70;94271.00;;;;7396392;19;20501;-78
2022/09/23 00:32:39;;;;;;;2.43;2.23;;;;;8.80;94264.00;;;;7397645;19;20133;-78
2022/09/23 00:35:14;;;;;;;5.57;2.40;;;;;8.90;94262.00;;;;7398430;19;20136;-78
2022/09/23 00:38:01;;;;;;;3.43;1.93;;;;;8.90;94261.00;;;;7394131;19;20160;-78
2022/09/23 00:40:44;;;;;;;3.07;2.20;;;;;9.00;94257.00;;;;7399130;19;20738;-79
2022/09/23 00:43:16;;;;;;;6.93;2.50;;;;;8.90;94259.00;;;;7394411;19;20583;-79
2022/09/23 00:45:51;;;;;;;3.60;2.20;;;;;8.90;94249.00;;;;7393618;19;20141;-79
2022/09/23 00:48:21;;;;;;;2.23;2.03;;;;;9.00;94253.00;;;;7393396;19;20154;-77
2022/09/23 00:50:53;;;;;;;2.53;2.03;;;;;9.00;94257.00;;;;7396833;19;20137;-77
2022/09/23 00:53:27;;;;;;;3.40;2.40;;;;;9.00;94258.00;;;;7389631;19;20518;-78
2022/09/23 00:56:14;;;;;;;2.60;2.10;;;;;8.90;94250.00;;;;7392005;19;20160;-79
2022/09/23 00:58:52;;;;;;;5.88;2.42;;;;;9.00;94246.00;;;;7393480;19;20604;-79
2022/09/23 01:01:20;;;;;;;4.40;2.10;;;;;9.00;94254.00;;;;7392594;19;20172;-79
2022/09/23 01:03:53;;;;;;;6.07;2.30;;;;;9.10;94250.00;;;;7395523;19;20160;-79
2022/09/23 01:06:31;;;;;;;2.93;2.30;;;;;9.00;94240.00;;;;7395650;19;20135;-79
2022/09/23 01:08:59;;;;;;;2.53;2.20;;;;;9.10;94240.00;;;;7397185;19;20156;-78
2022/09/23 01:11:59;;;;;;;2.37;2.10;;;;;9.00;94242.00;;;;7394929;19;20141;-79
2022/09/23 01:15:01;;;;;;;3.23;2.30;;;;;8.90;94241.00;;;;7392811;19;20159;-79
2022/09/23 01:17:49;;;;;;;3.60;2.57;;;;;8.80;94245.00;;;;7395606;19;20592;-77
2022/09/23 01:20:58;;;;;;;2.73;2.10;;;;;8.70;94235.00;;;;7397439;19;20144;-80
2022/09/23 01:23:51;;;;;;;3.40;2.10;;;;;8.80;94236.00;;;;7396331;19;20149;-80
2022/09/23 01:26:56;;;;;;;5.57;2.40;;;;;8.70;94235.00;;;;7396849;19;20638;-79
2022/09/23 01:30:02;;;;;;;5.10;2.33;;;;;8.80;94229.00;;;;7394763;19;20128;-80
2022/09/23 01:32:57;;;;;;;4.17;2.30;;;;;8.60;94233.00;;;;7394524;19;20204;-78
2022/09/23 01:35:59;;;;;;;2.80;2.47;;;;;8.70;94233.00;;;;7392123;19;20204;-79
2022/09/23 01:39:04;;;;;;;5.93;2.60;;;;;8.70;94229.00;;;;7393168;19;20180;-79
2022/09/23 01:41:54;;;;;;;2.23;1.97;;;;;8.60;94231.00;;;;7393122;19;20165;-80
2022/09/23 01:44:50;;;;;;;3.63;2.57;;;;;8.50;94225.00;;;;7395131;19;20156;-80
2022/09/23 01:47:31;;;;;;;6.87;2.50;;;;;8.40;94214.00;;;;7394275;19;20152;-80
2022/09/23 01:53:46;;;;;;;2.60;2.10;;;;;8.20;94218.00;;;;7395230;19;20128;-81
2022/09/23 01:56:25;;;;;;;2.57;2.27;;;;;8.20;94215.00;;;;7395940;19;20133;-80
2022/09/23 01:59:08;;;;;;;8.17;2.90;;;;;8.20;94209.00;;;;7396182;19;20136;-79
2022/09/23 02:01:57;;;;;;;4.40;2.40;;;;;7.90;94216.00;;;;7394151;19;20167;-80
2022/09/23 02:04:34;;;;;;;3.37;2.37;;;;;7.80;94208.00;;;;7394115;19;20172;-80
2022/09/23 02:07:19;;;;;;;2.30;2.10;;;;;7.90;94210.00;;;;7395667;19;20139;-80
2022/09/23 02:09:57;;;;;;;3.20;2.53;;;;;7.90;94212.00;;;;7395422;19;20143;-80
2022/09/23 02:12:37;;;;;;;2.70;2.10;;;;;7.80;94216.00;;;;7397854;19;20250;-80
2022/09/23 02:15:15;;;;;;;2.60;2.00;;;;;7.70;94214.00;;;;7404765;19;21110;-79
2022/09/23 02:18:00;;;;;;;3.53;2.43;;;;;7.60;94207.00;;;;7402836;19;20555;-80
2022/09/23 02:20:39;;;;;;;3.03;2.30;;;;;7.50;94206.00;;;;7406027;19;20157;-80
2022/09/23 02:23:19;;;;;;;7.00;2.50;;;;;7.40;94204.00;;;;7402382;19;20205;-79
2022/09/23 02:26:04;;;;;;;4.00;2.53;;;;;7.40;94204.00;;;;7400782;19;20146;-79
2022/09/23 02:29:21;;;;;;;2.70;2.30;;;;;7.40;94193.00;;;;7403658;19;20165;-78
2022/09/23 02:32:01;;;;;;;2.60;2.40;;;;;7.60;94183.00;;;;7402294;19;20151;-77
2022/09/23 02:35:04;;;;;;;2.83;2.00;;;;;7.80;94194.00;;;;7400282;19;20148;-79
2022/09/23 02:38:10;;;;;;;3.33;1.77;;;;;7.80;94196.00;;;;7395878;19;20171;-78
2022/09/23 02:40:55;;;;;;;5.67;2.20;;;;;7.90;94194.00;;;;7400532;19;20652;-79
2022/09/23 02:43:48;;;;;;;2.60;2.40;;;;;8.00;94195.00;;;;7398216;19;20170;-79
2022/09/23 02:46:22;;;;;;;5.70;2.37;;;;;8.10;94198.00;;;;7398208;19;20242;-78
2022/09/23 02:48:59;;;;;;;4.13;1.73;;;;;7.90;94188.00;;;;7405758;19;20125;-80
2022/09/23 02:51:37;;;;;;;2.17;1.97;;;;;7.80;94185.00;;;;7402517;19;20133;-80
2022/09/23 02:54:09;;;;;;;2.40;2.20;;;;;7.40;94182.00;;;;7401726;19;20132;-80
2022/09/23 02:56:43;;;;;;;4.80;2.30;;;;;7.60;94184.00;;;;7398902;19;20153;-81
2022/09/23 02:59:11;;;;;;;5.73;2.00;;;;;7.70;94176.00;;;;7402911;19;20113;-79
2022/09/23 03:01:55;;;;;;;2.60;2.27;;;;;7.60;94178.00;;;;7399102;19;20148;-81
2022/09/23 03:04:50;;;;;;;5.67;2.30;;;;;7.70;94168.00;;;;7399682;19;20472;-80
2022/09/23 03:07:23;;;;;;;2.67;2.33;;;;;7.60;94167.00;;;;7401632;19;20145;-80
2022/09/23 03:10:16;;;;;;;3.53;2.20;;;;;7.70;94177.00;;;;7399570;19;20144;-80
2022/09/23 03:13:13;;;;;;;4.07;2.60;;;;;7.70;94164.00;;;;7396254;19;20545;-79
2022/09/23 03:16:00;;;;;;;4.00;2.27;;;;;7.90;94166.00;;;;7399035;19;20172;-80
2022/09/23 03:18:49;;;;;;;3.37;2.10;;;;;8.00;94161.00;;;;7399663;19;20620;-79
2022/09/23 03:22:13;;;;;;;3.63;2.40;;;;;8.00;94164.00;;;;7398949;19;20898;-79
2022/09/23 03:24:44;;;;;;;2.80;2.60;;;;;7.90;94152.00;;;;7399668;19;20157;-81
2022/09/23 03:27:24;;;;;;;5.23;2.30;;;;;7.90;94150.00;;;;7397938;19;20156;-79
2022/09/23 03:29:54;;;;;;;2.90;2.13;;;;;8.00;94164.00;;;;7399454;19;20153;-80
2022/09/23 03:32:30;;;;;;;7.80;2.60;;;;;7.90;94152.00;;;;7401203;19;20147;-80
2022/09/23 03:35:00;;;;;;;4.40;2.27;;;;;8.10;94151.00;;;;7399443;19;20317;-78
2022/09/23 03:37:58;;;;;;;2.70;2.07;;;;;8.10;94153.00;;;;7394765;19;20183;-78
2022/09/23 03:40:42;;;;;;;3.73;2.57;;;;;8.20;94150.00;;;;7398647;19;20140;-78
2022/09/23 03:43:13;;;;;;;3.30;2.37;;;;;8.20;94150.00;;;;7401769;19;20594;-79
2022/09/23 03:45:47;;;;;;;7.27;2.40;;;;;8.30;94150.00;;;;7402163;19;20603;-81
2022/09/23 03:48:14;;;;;;;2.70;2.30;;;;;8.30;94148.00;;;;7401206;19;20129;-78
2022/09/23 03:50:43;;;;;;;4.23;2.13;;;;;8.20;94145.00;;;;7400224;19;20149;-79
2022/09/23 03:53:21;;;;;;;2.60;1.87;;;;;8.20;94147.00;;;;7400077;19;20215;-78
2022/09/23 03:55:48;;;;;;;2.30;2.00;;;;;8.20;94152.00;;;;7402015;19;20129;-79
2022/09/23 03:58:16;;;;;;;3.53;2.00;;;;;8.00;94150.00;;;;7397802;19;20216;-79
2022/09/23 04:00:50;;;;;;;4.43;2.20;;;;;7.90;94140.00;;;;7397369;19;20164;-78
2022/09/23 04:03:17;;;;;;;2.90;1.87;;;;;7.80;94153.00;;;;7395692;19;20164;-78
2022/09/23 04:05:47;;;;;;;4.27;2.00;;;;;7.80;94151.00;;;;7401332;19;20133;-79
2022/09/23 04:08:21;;;;;;;3.43;2.20;;;;;7.70;94151.00;;;;7400863;19;20132;-79
2022/09/23 04:10:49;;;;;;;4.00;2.17;;;;;7.80;94149.00;;;;7402947;19;20132;-78
2022/09/23 04:13:21;;;;;;;6.37;2.33;;;;;7.70;94139.00;;;;7399769;19;20199;-79
2022/09/23 04:16:09;;;;;;;3.90;2.10;;;;;7.70;94141.00;;;;7408086;19;20198;-77
2022/09/23 04:18:44;;;;;;;2.17;1.83;;;;;7.70;94140.00;;;;7411881;19;20133;-79
2022/09/23 04:21:18;;;;;;;4.63;2.27;;;;;7.70;94142.00;;;;7407236;19;20153;-80
2022/09/23 04:23:45;;;;;;;2.23;1.90;;;;;7.80;94142.00;;;;7401372;19;20162;-81
2022/09/23 04:26:13;;;;;;;3.80;1.80;;;;;7.90;94132.00;;;;7400937;19;20156;-80
2022/09/23 04:28:50;;;;;;;4.07;2.03;;;;;7.80;94138.00;;;;7405602;19;20140;-77
2022/09/23 04:31:17;;;;;;;1.93;1.60;;;;;7.70;94136.00;;;;7397580;19;20193;-78
2022/09/23 04:33:46;;;;;;;2.43;1.90;;;;;7.90;94133.00;;;;7394807;19;20125;-78
2022/09/23 04:36:20;;;;;;;6.00;2.27;;;;;7.70;94135.00;;;;7399552;19;20180;-79
2022/09/23 04:38:49;;;;;;;6.73;2.10;;;;;7.70;94133.00;;;;7397930;19;20143;-77
2022/09/23 04:41:17;;;;;;;3.43;2.17;;;;;7.70;94121.00;;;;7397794;19;20152;-78
2022/09/23 04:43:52;;;;;;;3.17;2.07;;;;;7.60;94129.00;;;;7400708;19;20133;-78
2022/09/23 04:46:19;;;;;;;3.97;1.80;;;;;7.50;94127.00;;;;7407455;19;20149;-79
2022/09/23 04:48:47;;;;;;;3.13;1.90;;;;;7.50;94136.00;;;;7401248;19;20137;-78
2022/09/23 04:51:23;;;;;;;2.33;1.63;;;;;7.50;94135.00;;;;7402248;19;20159;-79
2022/09/23 04:53:54;;;;;;;2.73;1.80;;;;;7.40;94137.00;;;;7397706;19;20129;-79
2022/09/23 04:56:32;;;;;;;2.33;2.00;;;;;7.40;94137.00;;;;7402614;19;20152;-79
2022/09/23 04:59:00;;;;;;;3.93;2.17;;;;;7.50;94140.00;;;;7406652;19;20144;-80
2022/09/23 05:01:30;;;;;;;4.43;2.00;;;;;7.60;94137.00;;;;7403252;19;20156;-79
2022/09/23 05:04:12;;;;;;;2.33;2.00;;;;;7.40;94143.00;;;;7401670;19;20164;-80
2022/09/23 05:06:42;;;;;;;2.90;1.90;;;;;7.50;94150.00;;;;7403003;19;20137;-79
2022/09/23 05:09:17;;;;;;;4.40;1.90;;;;;7.30;94141.00;;;;7397771;19;20235;-80
2022/09/23 05:11:44;;;;;;;4.33;2.13;;;;;7.30;94147.00;;;;7398354;19;20535;-80
2022/09/23 05:14:12;;;;;;;3.20;1.80;;;;;7.40;94145.00;;;;7400986;19;20152;-81
2022/09/23 05:16:59;;;;;;;2.60;2.00;;;;;7.40;94145.00;;;;7403080;19;20524;-79
2022/09/23 05:19:34;;;;;;;3.20;1.80;;;;;7.40;94151.00;;;;7401732;19;20144;-80
2022/09/23 05:22:09;;;;;;;5.43;2.33;;;;;7.30;94147.00;;;;7401417;19;20183;-80
2022/09/23 05:24:37;;;;;;;1.90;1.70;;;;;7.10;94153.00;;;;7398490;19;20209;-80
2022/09/23 05:27:08;;;;;;;2.40;2.07;;;;;6.90;94153.00;;;;7397675;19;20505;-79
2022/09/23 05:29:42;;;;;;;1.70;1.60;;;;;7.10;94142.00;;;;7392617;19;20163;-80
2022/09/23 05:32:10;;;;;;;2.50;1.83;;;;;7.40;94149.00;;;;7398214;19;20148;-79
2022/09/23 05:34:37;;;;;;;5.13;1.90;;;;;7.40;94145.00;;;;7399021;19;20141;-80
2022/09/23 05:37:11;;;;;;;3.30;1.90;;;;;7.50;94144.00;;;;7402283;19;20599;-80
2022/09/23 05:39:40;;;;;;;3.10;2.07;;;;;7.40;94143.00;;;;7396070;19;20156;-79
2022/09/23 05:42:11;;;;;;;2.47;1.80;;;;;7.30;94139.00;;;;7394039;19;20148;-79
2022/09/23 05:44:46;;;;;;;8.20;2.10;;;;;7.40;94144.00;;;;7400037;19;20232;-78
2022/09/23 05:47:13;;;;;;;2.50;1.63;;;;;7.50;94147.00;;;;7411442;19;20591;-80
2022/09/23 05:49:41;;;;;;;2.60;1.93;;;;;7.60;94144.00;;;;7411697;19;20179;-78
2022/09/23 05:52:26;;;;;;;2.20;1.83;;;;;8.00;94141.00;;;;7411575;19;20154;-77
2022/09/23 05:54:55;;;;;;;2.70;2.07;;;;;8.30;94140.00;;;;7418660;19;20173;-79
2022/09/23 05:57:30;;;;;;;2.67;2.00;;;;;8.50;94136.00;;;;7416402;19;20176;-78
2022/09/23 05:59:58;;;;;;;2.47;1.90;;;;;8.80;94144.00;;;;7405785;19;20264;-78
2022/09/23 06:02:26;;;;;;;3.53;2.07;;;;;9.00;94140.00;;;;7418983;19;20133;-77
2022/09/23 06:05:00;;;;;;;3.37;1.70;;;;;8.90;94149.00;;;;7426203;19;20203;-77
2022/09/23 06:07:30;;;;;;;2.93;2.13;;;;;9.20;94146.00;;;;7401399;19;20117;-79
2022/09/23 06:09:57;;;;;;;5.10;1.70;;;;;9.50;94142.00;;;;7406633;19;20153;-77
2022/09/23 06:12:34;;;;;;;2.20;2.00;;;;;9.60;94149.00;;;;7410984;19;20157;-79
2022/09/23 06:15:01;;;;;;;5.57;1.73;;;;;9.70;94141.00;;;;7402250;19;20132;-78
2022/09/23 06:17:29;;;;;;;4.63;2.13;;;;;10.00;94133.00;;;;7398417;19;20555;-79
2022/09/23 06:20:03;;;;;;;4.03;1.70;;;;;10.20;94137.00;;;;7402217;19;20148;-78
2022/09/23 06:22:31;;;;;;;2.88;1.73;;;;;10.30;94134.00;;;;7402528;19;20153;-78
2022/09/23 06:25:01;;;;;;;5.82;1.75;;;;;10.40;94141.00;;;;7400757;19;20153;-78
2022/09/23 06:27:35;;;;;;;5.40;1.70;;;;;10.80;94134.00;;;;7399195;19;20168;-78
2022/09/23 06:30:05;;;;;;;2.13;1.80;;;;;11.00;94123.00;;;;7411028;19;20157;-78
2022/09/23 06:32:33;;;;;;;1.67;1.50;;;;;11.10;94128.00;;;;7407546;19;20163;-79
2022/09/23 06:35:08;;;;;;;4.05;1.65;;;;;11.50;94125.00;;;;7403552;19;20152;-78
2022/09/23 06:37:53;;;;;;;3.88;1.55;;;;;11.70;94123.00;;;;7406425;19;20152;-78
2022/09/23 06:40:28;;;;;;;1.75;1.65;;;;;12.00;94118.00;;;;7397772;19;20171;-78
2022/09/23 06:43:00;;;;;;;2.70;1.83;;;;;12.30;94121.00;;;;7397540;19;20156;-77
2022/09/23 06:45:27;;;;;;;2.65;1.52;;;;;12.50;94112.00;;;;7401518;19;20156;-78
2022/09/23 06:48:07;;;;;;;5.18;1.80;;;;;12.70;94119.00;;;;7402449;19;20510;-79
2022/09/23 06:50:35;;;;;;;4.03;1.90;;;;;13.00;94119.00;;;;7401537;19;20559;-78
2022/09/23 06:53:10;;;;;;;3.97;1.70;;;;;13.20;94117.00;;;;7399819;19;20668;-78
2022/09/23 06:55:37;;;;;;;6.30;1.70;;;;;13.20;94125.00;;;;7398517;19;20151;-79
2022/09/23 06:58:05;;;;;;;2.20;1.40;;;;;13.20;94126.00;;;;7395115;19;20148;-79
2022/09/23 07:00:41;;;;;;;1.60;1.50;;;;;13.40;94134.00;;;;7396730;19;20220;-77
2022/09/23 07:03:11;;;;;;;3.63;2.28;;;;;13.60;94125.00;;;;7399485;19;20173;-78
2022/09/23 07:05:38;;;;;;;3.17;2.53;;;;;13.90;94134.00;;;;7398954;19;20519;-78
2022/09/23 07:08:16;;;;;;;2.50;2.00;;;;;13.90;94134.00;;;;7395437;19;20152;-78
2022/09/23 07:10:49;;;;;;;3.80;2.20;;;;;13.90;94134.00;;;;7395061;19;20166;-77
2022/09/23 07:13:24;;;;;;;2.88;2.55;;;;;13.90;94136.00;;;;7398632;19;20181;-77
2022/09/23 07:16:06;;;;;;;2.28;1.60;;;;;14.00;94137.00;;;;7413777;19;20136;-77
2022/09/23 07:18:44;;;;;;;3.75;1.80;;;;;14.00;94145.00;;;;7404264;19;20156;-78
2022/09/23 07:21:14;;;;;;;2.92;2.40;;;;;13.90;94140.00;;;;7405662;19;20145;-79
2022/09/23 07:23:50;;;;;;;2.63;2.22;;;;;13.70;94151.00;;;;7396219;19;20152;-79
2022/09/23 07:26:21;;;;;;;4.95;2.38;;;;;13.90;94145.00;;;;7397289;19;20137;-79
2022/09/23 07:29:03;;;;;;;3.35;1.95;;;;;13.90;94149.00;;;;7398110;19;20137;-79
2022/09/23 07:31:35;;;;;;;2.63;1.98;;;;;13.90;94147.00;;;;7398644;19;20156;-79
2022/09/23 07:34:12;;;;;;;2.05;1.85;;;;;14.10;94146.00;;;;7394716;19;20470;-78
2022/09/23 07:36:40;;;;;;;2.35;1.90;;;;;13.90;94146.00;;;;7397468;19;20627;-78
2022/09/23 07:39:11;;;;;;;2.20;2.00;;;;;14.00;94156.00;;;;7395667;19;20667;-78
2022/09/23 07:41:50;;;;;;;4.55;1.77;;;;;14.00;94157.00;;;;7392691;19;20143;-79
2022/09/23 07:44:20;;;;;;;3.65;1.90;;;;;14.20;94156.00;;;;7394880;19;20210;-79
2022/09/23 07:46:54;;;;;;;3.30;1.75;;;;;14.00;94153.00;;;;7396754;19;20125;-79
2022/09/23 07:49:22;;;;;;;4.07;1.88;;;;;14.10;94155.00;;;;7395015;19;20204;-80
2022/09/23 07:51:51;;;;;;;2.55;2.10;;;;;14.10;94154.00;;;;7395226;19;20141;-78
2022/09/23 07:54:28;;;;;;;4.85;1.83;;;;;14.20;94162.00;;;;7395295;19;20654;-78
2022/09/23 07:56:57;;;;;;;3.35;2.05;;;;;14.40;94164.00;;;;7396999;19;20157;-78
2022/09/23 07:59:25;;;;;;;3.00;1.73;;;;;14.50;94163.00;;;;7395933;19;20144;-79
2022/09/23 08:02:00;;;;;;;2.80;2.20;;;;;14.70;94165.00;;;;7395877;19;20168;-79
2022/09/23 08:04:30;;;;;;;2.22;1.88;;;;;15.00;94165.00;;;;7410684;19;20145;-78
2022/09/23 08:07:00;;;;;;;2.88;2.10;;;;;15.10;94166.00;;;;7396523;19;20157;-79
2022/09/23 08:09:40;;;;;;;4.40;1.80;;;;;15.30;94161.00;;;;7405560;19;20129;-80
2022/09/23 08:12:23;;;;;;;5.95;2.10;;;;;15.40;94168.00;;;;7398219;19;20191;-78
2022/09/23 08:14:59;;;;;;;2.05;1.83;;;;;15.60;94161.00;;;;7401375;19;20141;-81
2022/09/23 08:17:26;;;;;;;4.30;2.00;;;;;15.60;94168.00;;;;7398985;19;20518;-82
2022/09/23 08:19:55;;;;;;;4.53;2.30;;;;;15.60;94168.00;;;;7400935;19;20173;-82
2022/09/23 08:22:34;;;;;;;3.97;2.13;;;;;15.70;94172.00;;;;7403700;19;20153;-80
2022/09/23 08:25:07;;;;;;;4.50;1.95;;;;;16.00;94169.00;;;;7403376;19;20511;-81
2022/09/23 08:27:55;;;;;;;3.78;1.80;;;;;16.10;94164.00;;;;7409793;19;20152;-81
2022/09/23 08:30:23;;;;;;;2.63;1.92;;;;;16.30;94163.00;;;;7407091;19;20252;-81
2022/09/23 08:32:58;;;;;;;3.70;1.98;;;;;16.60;94163.00;;;;7406433;19;20171;-81
2022/09/23 08:35:26;;;;;;;5.22;2.13;;;;;16.60;94155.00;;;;7399880;19;20160;-81
2022/09/23 08:37:53;;;;;;;4.10;2.22;;;;;16.20;94165.00;;;;7409200;19;20148;-81
2022/09/23 08:40:28;;;;;;;5.68;2.45;;;;;16.30;94167.00;;;;7408401;19;20159;-79
2022/09/23 08:42:55;;;;;;;3.05;2.20;;;;;16.10;94163.00;;;;7407178;19;20468;-80
2022/09/23 08:45:26;;;;;;;3.42;2.15;;;;;16.10;94163.00;;;;7398940;19;20129;-80
2022/09/23 08:48:12;;;;;;;5.65;2.20;;;;;15.80;94166.00;;;;7399602;19;20136;-82
2022/09/23 08:50:49;;;;;;;3.65;2.20;;;;;15.70;94168.00;;;;7400584;19;20150;-80
2022/09/23 08:53:35;;;;;;;2.90;2.20;;;;;15.90;94166.00;;;;7398330;19;20610;-80
2022/09/23 08:56:15;;;;;;;6.95;2.05;;;;;16.00;94158.00;;;;7394961;19;20624;-78
2022/09/23 08:59:08;;;;;;;2.65;1.90;;;;;16.10;94157.00;;;;7396781;19;20176;-77
2022/09/23 09:01:59;;;;;;;2.65;2.00;;;;;16.20;94162.00;;;;7395628;19;20643;-78
2022/09/23 09:04:36;;;;;;;2.30;1.90;;;;;16.50;94147.00;;;;7395876;19;20129;-78
2022/09/23 09:07:12;;;;;;;4.65;1.90;;;;;17.20;94162.00;;;;7393460;19;20159;-79
2022/09/23 09:10:22;;;;;;;3.55;1.90;;;;;17.30;94153.00;;;;7391748;19;20208;-78
2022/09/23 09:13:07;;;;;;;3.00;2.05;;;;;17.40;94154.00;;;;7390481;19;20168;-77
2022/09/23 09:15:54;;;;;;;2.78;2.50;;;;;17.50;94147.00;;;;7391753;19;20513;-77
2022/09/23 09:18:28;;;;;;;4.68;2.55;;;;;17.40;94142.00;;;;7396066;19;20172;-77
2022/09/23 09:21:12;;;;;;;3.75;2.38;;;;;17.50;94144.00;;;;7394585;19;20162;-78
2022/09/23 09:23:59;;;;;;;2.88;2.22;;;;;17.80;94142.00;;;;7392916;19;20152;-77
2022/09/23 09:26:38;;;;;;;2.38;2.10;;;;;18.70;94142.00;;;;7392943;19;20554;-81
2022/09/23 09:29:32;;;;;;;4.28;1.98;;;;;19.00;94134.00;;;;7395972;19;20148;-80
2022/09/23 09:32:23;;;;;;;5.07;2.10;;;;;18.80;94141.00;;;;7395457;19;20153;-78
2022/09/23 09:34:59;;;;;;;3.33;2.38;;;;;18.40;94160.00;;;;7391654;19;20144;-78
2022/09/23 09:37:45;;;;;;;4.65;2.00;;;;;17.80;94155.00;;;;7388816;19;20212;-79
2022/09/23 09:40:18;;;;;;;4.70;2.22;;;;;17.40;94159.00;;;;7389498;19;20165;-79
2022/09/23 09:42:55;;;;;;;2.92;2.63;;;;;17.70;94154.00;;;;7394469;19;20166;-79
2022/09/23 09:45:58;;;;;;;4.00;3.00;;;;;18.00;94154.00;;;;7390713;19;20121;-79
2022/09/23 09:48:59;;;;;;;4.63;2.35;;;;;18.00;94153.00;;;;7390578;19;20144;-79
2022/09/23 09:51:28;;;;;;;8.43;5.10;;;;;17.60;94158.00;;;;7396369;19;20141;-78
2022/09/23 09:54:24;;;;;;;7.18;4.35;;;;;16.70;94142.00;;;;7416812;19;20121;-78
2022/09/23 09:56:53;;;;;;;6.93;4.57;;;;;16.80;94151.00;;;;7414698;19;20137;-79
2022/09/23 09:59:28;;;;;;;4.30;3.90;;;;;16.80;94147.00;;;;7391366;19;20208;-78
2022/09/23 10:02:35;;;;;;;9.30;3.70;;;;;16.90;94152.00;;;;7388820;19;20144;-78
2022/09/23 10:05:33;;;;;;;6.43;4.60;;;;;16.80;94157.00;;;;7391593;19;20611;-79
2022/09/23 10:08:23;;;;;;;10.98;4.43;;;;;17.00;94145.00;;;;7391509;19;20651;-78
2022/09/23 10:11:05;;;;;;;7.20;4.53;;;;;17.60;94149.00;;;;7392186;19;20137;-79
2022/09/23 10:13:41;;;;;;;8.93;3.28;;;;;18.00;94135.00;;;;7389250;19;20271;-79
2022/09/23 10:16:15;;;;;;;4.65;3.13;;;;;18.30;94139.00;;;;7392395;19;20225;-78
2022/09/23 10:18:45;;;;;;;7.00;2.67;;;;;18.60;94137.00;;;;7392624;19;20129;-78
2022/09/23 10:21:21;;;;;;;7.47;3.97;;;;;19.10;94134.00;;;;7397905;19;20152;-79
2022/09/23 10:23:57;;;;;;;3.60;2.80;;;;;18.60;94132.00;;;;7391776;19;20149;-79
2022/09/23 10:26:32;;;;;;;4.18;2.88;;;;;18.60;94125.00;;;;7391024;19;20163;-78
2022/09/23 10:29:28;;;;;;;3.55;2.72;;;;;19.50;94132.00;;;;7392303;19;20253;-78
2022/09/23 10:32:17;;;;;;;2.90;2.60;;;;;19.50;94117.00;;;;7391158;19;20125;-79
2022/09/23 10:35:00;;;;;;;3.72;2.70;;;;;20.00;94135.00;;;;7400168;19;20617;-77
2022/09/23 10:37:54;;;;;;;6.20;3.22;;;;;19.30;94138.00;;;;7396413;19;20150;-79
2022/09/23 10:46:51;;;;;;;4.63;3.30;;;;;17.70;94140.00;;;;7397658;19;20133;-79
2022/09/23 10:49:50;;;;;;;5.72;3.03;;;;;17.80;94123.00;;;;7397376;19;20169;-79
2022/09/23 10:53:01;;;;;;;4.93;3.03;;;;;18.80;94117.00;;;;7396688;19;20600;-77
2022/09/23 10:55:59;;;;;;;6.93;3.35;;;;;18.40;94139.00;;;;7397478;19;20161;-79
2022/09/23 10:59:10;;;;;;;3.55;2.95;;;;;17.40;94122.00;;;;7395651;19;20222;-79
2022/09/23 11:01:58;;;;;;;3.47;2.80;;;;;18.50;94113.00;;;;7394816;19;20153;-80
2022/09/23 11:04:54;;;;;;;4.97;3.00;;;;;19.80;94105.00;;;;7400133;19;20168;-78
2022/09/23 11:07:49;;;;;;;3.97;2.83;;;;;19.70;94098.00;;;;7393075;19;20168;-79
2022/09/23 11:10:47;;;;;;;5.07;3.20;;;;;20.40;94098.00;;;;7396582;19;20761;-78
2022/09/23 11:13:40;;;;;;;3.47;2.70;;;;;20.40;94098.00;;;;7391655;19;20176;-79
2022/09/23 11:16:30;;;;;;;5.10;2.75;;;;;19.70;94106.00;;;;7394770;19;20159;-79
2022/09/23 11:19:31;;;;;;;6.38;3.10;;;;;20.00;94100.00;;;;7396434;19;20160;-78
2022/09/23 11:22:23;;;;;;;2.47;2.15;;;;;20.30;94089.00;;;;7393308;19;21029;-79
2022/09/23 11:25:21;;;;;;;4.55;3.17;;;;;20.90;94098.00;;;;7396111;19;20145;-78
2022/09/23 11:28:41;;;;;;;3.15;2.58;;;;;21.20;94097.00;;;;7396382;19;20143;-77
2022/09/23 11:31:23;;;;;;;3.78;2.70;;;;;20.60;94090.00;;;;7397562;19;20461;-79
2022/09/23 11:34:49;;;;;;;4.57;3.00;;;;;21.60;94083.00;;;;7393850;19;20129;-79
2022/09/23 11:37:48;;;;;;;4.32;2.30;;;;;20.80;94084.00;;;;7391659;19;20145;-78
2022/09/23 11:40:30;;;;;;;9.00;2.47;;;;;21.50;94085.00;;;;7393325;19;20148;-79
2022/09/23 11:43:14;;;;;;;5.93;2.50;;;;;21.70;94076.00;;;;7393901;19;20591;-78
2022/09/23 11:46:08;;;;;;;5.93;2.10;;;;;21.90;94084.00;;;;7391324;19;20160;-78
2022/09/23 11:48:48;;;;;;;4.55;2.30;;;;;21.70;94087.00;;;;7390778;19;20232;-78
2022/09/23 11:51:52;;;;;;;2.80;2.45;;;;;20.50;94098.00;;;;7388335;19;20770;-78
2022/09/23 11:54:25;;;;;;;3.60;2.35;;;;;19.60;94104.00;;;;7389514;19;20144;-78
2022/09/23 11:57:05;;;;;;;2.78;2.40;;;;;18.70;94111.00;;;;7395099;19;20136;-77
2022/09/23 11:59:48;;;;;;;2.67;2.22;;;;;18.80;94105.00;;;;7397356;19;20595;-77
2022/09/23 12:02:47;;;;;;;3.05;2.47;;;;;19.30;94092.00;;;;7391310;19;20152;-77
2022/09/23 12:05:46;;;;;;;4.88;2.60;;;;;19.80;94085.00;;;;7393155;19;20147;-80
2022/09/23 12:08:35;;;;;;;5.93;3.13;;;;;20.40;94094.00;;;;7391762;19;20152;-77
2022/09/23 12:11:28;;;;;;;4.68;2.67;;;;;20.20;94077.00;;;;7393400;19;20508;-78
2022/09/23 12:14:33;;;;;;;4.20;2.25;;;;;20.60;94078.00;;;;7395040;19;20149;-78
2022/09/23 12:17:36;;;;;;;6.20;2.80;;;;;21.20;94074.00;;;;7389716;19;20164;-78
2022/09/23 12:21:00;;;;;;;2.97;2.67;;;;;21.00;94067.00;;;;7388716;19;20176;-77
2022/09/23 12:24:14;;;;;;;4.55;2.38;;;;;21.20;94084.00;;;;7388440;19;20153;-78
2022/09/23 12:26:55;;;;;;;4.38;2.53;;;;;21.10;94079.00;;;;7391395;19;20168;-78
2022/09/23 12:29:26;;;;;;;6.28;2.80;;;;;20.40;94076.00;;;;7388999;19;20145;-78
2022/09/23 12:32:08;;;;;;;3.95;2.47;;;;;20.70;94087.00;;;;7390701;19;20147;-78
2022/09/23 12:34:50;;;;;;;3.55;2.35;;;;;19.80;94080.00;;;;7385603;19;20152;-76
2022/09/23 12:37:31;;;;;;;3.22;2.35;;;;;19.30;94084.00;;;;7395332;19;20146;-78
2022/09/23 12:40:03;;;;;;;2.40;2.20;;;;;18.60;94084.00;;;;7392752;19;20168;-78
2022/09/23 12:42:47;;;;;;;4.35;2.63;;;;;18.60;94088.00;;;;7389309;19;20171;-78
2022/09/23 12:45:33;;;;;;;5.78;2.72;;;;;18.40;94084.00;;;;7391284;19;20619;-78
2022/09/23 12:48:20;;;;;;;2.83;2.20;;;;;18.30;94078.00;;;;7388878;19;20160;-78
2022/09/23 12:50:53;;;;;;;3.72;2.40;;;;;18.20;94086.00;;;;7393325;19;20136;-77
2022/09/23 12:53:34;;;;;;;2.83;2.53;;;;;18.10;94091.00;;;;7394628;19;20156;-77
2022/09/23 12:56:14;;;;;;;2.55;2.15;;;;;18.20;94086.00;;;;7391809;19;20499;-79
2022/09/23 12:58:49;;;;;;;4.70;2.80;;;;;18.20;94091.00;;;;7392250;19;20192;-77
2022/09/23 13:01:22;;;;;;;4.18;2.55;;;;;18.00;94092.00;;;;7390233;19;20136;-79
2022/09/23 13:07:05;;;;;;;3.80;2.55;;;;;17.90;94084.00;;;;7391732;19;20152;-77
2022/09/23 13:09:40;;;;;;;2.47;2.28;;;;;18.20;94076.00;;;;7389472;19;20613;-78
2022/09/23 13:12:35;;;;;;;5.43;2.63;;;;;18.60;94067.00;;;;7390583;19;20176;-79
2022/09/23 13:15:35;;;;;;;5.38;2.30;;;;;18.60;94069.00;;;;7394310;19;20145;-78
2022/09/23 13:18:26;;;;;;;4.35;2.92;;;;;19.00;94071.00;;;;7385833;19;20176;-77
2022/09/23 13:21:00;;;;;;;3.92;2.10;;;;;19.20;94070.00;;;;7390592;19;20213;-78
2022/09/23 13:23:35;;;;;;;5.25;2.60;;;;;19.20;94066.00;;;;7391171;19;20194;-78
2022/09/23 13:26:12;;;;;;;3.67;2.40;;;;;19.20;94063.00;;;;7391644;19;20747;-81
2022/09/23 13:29:01;;;;;;;3.38;2.70;;;;;18.70;94064.00;;;;7388551;19;20151;-79
2022/09/23 13:31:29;;;;;;;6.75;2.67;;;;;18.20;94056.00;;;;7387560;19;20152;-79
2022/09/23 13:34:06;;;;;;;3.28;2.80;;;;;17.80;94055.00;;;;7391239;19;20617;-78
2022/09/23 13:36:46;;;;;;;4.28;2.72;;;;;17.70;94058.00;;;;7387532;19;20156;-78
2022/09/23 13:39:27;;;;;;;3.35;2.72;;;;;18.00;94055.00;;;;7385971;19;20128;-77